Medina, Saudi Arabia
Current Conditions -  °F | °C
As of 11:00 AM on Thursday 27 Nov 2014 (Local Time) from OEMA Reporting Station
Clear Clear  
Wind Chill: 68°   Ceiling: Unl
Heat Index: 68°   Visibility: 5mi
Dew Point: 36°   Wind: 0mph
Humidity: 30%   Direction: NA
Pressure: 30.12"   Gusts: NA
Location:  24.46°N, 39.62°E
Report Text: OEMA 270800Z 00000KT 8000 SKC 20/02 Q1020 NOSIG
Loading
Personal Weather Stations






























Interactive Weather Map New forecast layout! Learn more

10-Day Weather Forecast

Advertisements
Track Severe Weather on mobile